createdAt,value
2018-11-05T00:00:42.786Z,10.20
2018-11-05T00:03:10.887Z,10.43
2018-11-05T00:05:39.015Z,11.13
2018-11-05T00:08:07.184Z,9.97
2018-11-05T00:10:35.284Z,11.00
2018-11-05T00:13:03.406Z,9.03
2018-11-05T00:15:31.526Z,10.00
2018-11-05T00:17:59.624Z,9.67
2018-11-05T00:20:28.754Z,10.00
2018-11-05T00:22:56.884Z,9.50
2018-11-05T00:25:25.005Z,10.70
2018-11-05T00:27:53.108Z,9.87
2018-11-05T00:30:21.262Z,10.57
2018-11-05T00:32:49.371Z,9.97
2018-11-05T00:35:17.473Z,9.47
2018-11-05T00:37:45.595Z,9.50
2018-11-05T00:40:14.724Z,10.23
2018-11-05T00:42:43.435Z,9.63
2018-11-05T00:45:12.293Z,9.97
2018-11-05T00:47:40.876Z,9.80
2018-11-05T00:50:11.824Z,10.30
2018-11-05T00:52:39.970Z,9.67
2018-11-05T00:55:08.788Z,10.57
2018-11-05T00:57:36.893Z,9.60
2018-11-05T01:00:09.897Z,9.57
2018-11-05T01:02:38.225Z,9.40
2018-11-05T01:05:07.517Z,9.30
2018-11-05T01:07:35.626Z,9.33
2018-11-05T01:10:03.784Z,8.30
2018-11-05T01:12:32.168Z,9.10
2018-11-05T01:15:00.280Z,8.83
2018-11-05T01:17:28.444Z,8.23
2018-11-05T01:19:56.540Z,9.27
2018-11-05T01:22:24.660Z,8.60
2018-11-05T01:24:52.760Z,9.20
2018-11-05T01:27:20.847Z,8.20
2018-11-05T01:29:48.953Z,7.60
2018-11-05T01:32:17.040Z,8.47
2018-11-05T01:34:45.137Z,8.33
2018-11-05T01:37:13.321Z,9.30
2018-11-05T01:39:41.345Z,7.50
2018-11-05T01:42:09.439Z,7.80
2018-11-05T01:44:37.549Z,8.50
2018-11-05T01:47:05.660Z,7.90
2018-11-05T01:49:33.840Z,9.13
2018-11-05T01:52:01.931Z,9.47
2018-11-05T01:54:30.073Z,8.80
2018-11-05T01:56:58.171Z,9.40
2018-11-05T01:59:26.675Z,8.97
2018-11-05T02:01:54.841Z,8.07
2018-11-05T02:04:22.954Z,9.20
2018-11-05T02:06:51.171Z,9.57
2018-11-05T02:09:19.302Z,10.97
2018-11-05T02:11:47.434Z,9.80
2018-11-05T02:14:15.563Z,9.17
2018-11-05T02:16:43.707Z,9.97
2018-11-05T02:19:11.859Z,10.30
2018-11-05T02:21:39.976Z,9.67
2018-11-05T02:24:08.224Z,9.80
2018-11-05T02:26:36.346Z,9.17
2018-11-05T02:29:04.692Z,8.73
2018-11-05T02:31:32.832Z,9.27
2018-11-05T02:34:00.965Z,9.30
2018-11-05T02:36:29.397Z,10.00
2018-11-05T02:38:57.768Z,8.60
2018-11-05T02:41:25.892Z,10.33
2018-11-05T02:43:54.091Z,9.90
2018-11-05T02:46:22.244Z,9.17
2018-11-05T02:48:50.360Z,9.33
2018-11-05T02:51:18.489Z,9.23
2018-11-05T02:53:46.608Z,10.40
2018-11-05T02:56:14.732Z,10.27
2018-11-05T02:58:42.876Z,9.60
2018-11-05T03:01:11.016Z,10.00
2018-11-05T03:03:39.132Z,9.90
2018-11-05T03:06:07.308Z,9.10
2018-11-05T03:08:35.433Z,9.60
2018-11-05T03:11:03.557Z,9.93
2018-11-05T03:13:31.682Z,9.47
2018-11-05T03:15:59.812Z,9.47
2018-11-05T03:18:27.927Z,10.80
2018-11-05T03:20:56.069Z,10.00
2018-11-05T03:23:24.184Z,10.50
2018-11-05T03:25:52.315Z,11.20
2018-11-05T03:28:20.461Z,10.00
2018-11-05T03:30:48.592Z,10.40
2018-11-05T03:33:16.716Z,9.40
2018-11-05T03:35:44.878Z,11.20
2018-11-05T03:38:12.960Z,9.40
2018-11-05T03:40:41.075Z,11.60
2018-11-05T03:43:09.185Z,10.20
2018-11-05T03:45:37.292Z,10.43
2018-11-05T03:48:05.543Z,11.10
2018-11-05T03:50:33.651Z,12.13
2018-11-05T03:55:36.433Z,11.00
2018-11-05T03:58:04.854Z,10.57
2018-11-05T04:00:32.982Z,13.87
2018-11-05T04:03:01.165Z,22.60
2018-11-05T04:05:29.215Z,31.30
2018-11-05T04:07:57.320Z,32.17
2018-11-05T04:10:25.824Z,38.10
2018-11-05T04:12:53.927Z,37.20
2018-11-05T04:15:22.089Z,36.00
2018-11-05T04:17:50.171Z,37.63
2018-11-05T04:20:18.294Z,39.03
2018-11-05T04:22:46.408Z,38.80
2018-11-05T04:25:14.515Z,42.93
2018-11-05T04:27:42.731Z,40.20
2018-11-05T04:30:12.706Z,38.33
2018-11-05T04:32:41.202Z,39.23
2018-11-05T04:35:09.679Z,39.80
2018-11-05T04:37:37.841Z,40.43
2018-11-05T04:40:06.820Z,39.37
2018-11-05T04:42:34.943Z,36.47
2018-11-05T04:45:03.054Z,37.10
2018-11-05T04:47:31.179Z,34.83
2018-11-05T04:49:59.298Z,36.07
2018-11-05T04:52:27.428Z,36.77
2018-11-05T04:54:55.540Z,36.63
2018-11-05T04:57:23.659Z,37.93
2018-11-05T04:59:51.769Z,36.60
2018-11-05T05:02:19.936Z,34.77
2018-11-05T05:04:48.044Z,26.73
2018-11-05T05:07:16.174Z,23.33
2018-11-05T05:09:44.280Z,25.90
2018-11-05T05:12:12.406Z,27.43
2018-11-05T05:14:40.507Z,26.20
2018-11-05T05:17:08.626Z,24.80
2018-11-05T05:19:36.750Z,25.70
2018-11-05T05:22:05.163Z,22.23
2018-11-05T05:24:33.291Z,22.93
2018-11-05T05:27:01.411Z,24.33
2018-11-05T05:29:29.524Z,13.50
2018-11-05T05:31:57.648Z,11.10
2018-11-05T05:34:25.752Z,12.27
2018-11-05T05:36:53.880Z,11.40
2018-11-05T05:39:21.991Z,9.30
2018-11-05T05:41:50.105Z,10.83
2018-11-05T05:44:18.274Z,9.50
2018-11-05T05:46:46.406Z,9.87
2018-11-05T05:49:14.517Z,11.07
2018-11-05T05:51:42.899Z,10.90
2018-11-05T05:54:11.023Z,11.00
2018-11-05T05:56:39.146Z,9.53
2018-11-05T05:59:07.273Z,11.47
2018-11-05T06:01:35.392Z,10.60
2018-11-05T06:04:03.556Z,10.03
2018-11-05T06:06:31.759Z,10.13
2018-11-05T06:08:59.787Z,9.57
2018-11-05T06:11:27.908Z,8.97
2018-11-05T06:13:56.051Z,10.20
2018-11-05T06:16:24.151Z,9.30
2018-11-05T06:18:52.269Z,8.13
2018-11-05T06:21:20.386Z,9.20
2018-11-05T06:23:48.512Z,10.20
2018-11-05T06:26:16.615Z,8.77
2018-11-05T06:28:44.835Z,9.07
2018-11-05T06:31:12.844Z,9.40
2018-11-05T06:33:41.007Z,9.43
2018-11-05T06:36:09.163Z,11.17
2018-11-05T06:38:37.281Z,9.63
2018-11-05T06:41:05.819Z,10.80
2018-11-05T06:43:33.950Z,10.37
2018-11-05T06:46:02.072Z,12.50
2018-11-05T06:48:30.204Z,12.43
2018-11-05T06:50:58.328Z,11.50
2018-11-05T06:53:26.459Z,9.90
2018-11-05T06:55:54.582Z,11.10
2018-11-05T06:58:22.742Z,12.60
2018-11-05T07:03:44.153Z,17.20
2018-11-05T07:06:12.285Z,17.20
2018-11-05T07:08:40.408Z,23.83
2018-11-05T07:11:08.594Z,25.07
2018-11-05T07:13:36.691Z,23.53
2018-11-05T07:16:04.814Z,20.03
2018-11-05T07:18:32.980Z,23.40
2018-11-05T07:21:01.054Z,22.63
2018-11-05T07:23:29.178Z,24.30
2018-11-05T07:25:57.303Z,28.93
2018-11-05T07:28:25.435Z,33.03
2018-11-05T07:30:53.564Z,28.77
2018-11-05T07:33:21.774Z,30.40
2018-11-05T07:35:49.840Z,30.00
2018-11-05T07:38:17.979Z,26.37
2018-11-05T07:40:46.105Z,26.60
2018-11-05T07:43:14.313Z,24.33
2018-11-05T07:45:42.454Z,21.40
2018-11-05T07:48:10.585Z,22.07
2018-11-05T07:50:38.754Z,21.70
2018-11-05T07:53:06.821Z,18.13
2018-11-05T07:55:34.948Z,15.30
2018-11-05T07:58:03.059Z,14.63
2018-11-05T08:00:36.699Z,15.27
2018-11-05T08:03:05.112Z,15.47
2018-11-05T08:05:33.229Z,13.80
2018-11-05T08:08:01.337Z,14.00
2018-11-05T08:10:29.459Z,15.33
2018-11-05T08:12:57.571Z,14.53
2018-11-05T08:15:26.247Z,13.40
2018-11-05T08:17:54.724Z,15.10
2018-11-05T08:20:22.854Z,15.40
2018-11-05T08:22:50.971Z,15.57
2018-11-05T08:25:19.087Z,13.57
2018-11-05T08:27:47.209Z,14.77
2018-11-05T08:30:18.979Z,15.10
2018-11-05T08:32:47.099Z,14.87
2018-11-05T08:35:15.440Z,15.97
2018-11-05T08:37:44.727Z,16.90
2018-11-05T08:40:15.237Z,16.90
2018-11-05T08:42:43.968Z,16.37
2018-11-05T08:45:13.264Z,19.47
2018-11-05T08:47:41.622Z,15.33
2018-11-05T08:50:12.009Z,16.53
2018-11-05T08:52:40.103Z,16.13
2018-11-05T08:55:11.531Z,15.00
2018-11-05T08:57:40.072Z,15.43
2018-11-05T09:01:18.975Z,15.87
2018-11-05T09:03:48.870Z,15.27
2018-11-05T09:06:17.817Z,16.10
2018-11-05T09:08:46.198Z,15.37
2018-11-05T09:11:14.771Z,17.10
2018-11-05T09:13:42.506Z,14.63
2018-11-05T09:16:10.690Z,16.67
2018-11-05T09:18:38.747Z,16.53
2018-11-05T09:21:06.856Z,19.37
2018-11-05T09:23:34.977Z,17.80
2018-11-05T09:26:03.107Z,18.83
2018-11-05T09:28:31.230Z,20.93
2018-11-05T09:30:59.348Z,20.80
2018-11-05T09:33:27.452Z,23.50
2018-11-05T09:35:55.573Z,21.13
2018-11-05T09:38:23.707Z,22.47
2018-11-05T09:40:51.844Z,22.20
2018-11-05T09:43:19.972Z,23.10
2018-11-05T09:45:48.092Z,22.90
2018-11-05T09:48:16.207Z,21.40
2018-11-05T09:50:44.437Z,20.03
2018-11-05T09:53:12.465Z,19.27
2018-11-05T09:55:40.656Z,20.27
2018-11-05T09:58:08.715Z,21.80
2018-11-05T10:00:36.849Z,21.40
2018-11-05T10:03:10.450Z,20.10
2018-11-05T10:05:38.447Z,19.80
2018-11-05T10:08:06.567Z,21.70
2018-11-05T10:10:34.704Z,21.80
2018-11-05T10:13:02.844Z,21.70
2018-11-05T10:15:30.975Z,22.00
2018-11-05T10:17:59.108Z,21.80
2018-11-05T10:20:27.227Z,23.37
2018-11-05T10:22:55.348Z,24.87
2018-11-05T10:25:23.488Z,24.87
2018-11-05T10:27:52.099Z,28.20
2018-11-05T10:30:25.395Z,29.77
2018-11-05T10:32:53.523Z,32.23
2018-11-05T10:35:25.894Z,31.77
2018-11-05T10:37:54.028Z,32.37
2018-11-05T10:40:22.218Z,31.53
2018-11-05T10:42:50.280Z,31.73
2018-11-05T10:45:19.055Z,33.73
2018-11-05T10:47:47.199Z,31.87
2018-11-05T10:50:16.343Z,29.40
2018-11-05T10:52:45.931Z,33.00
2018-11-05T10:55:14.046Z,30.50
2018-11-05T10:57:42.804Z,31.60
2018-11-05T11:01:20.261Z,28.80
2018-11-05T11:03:54.203Z,30.00
2018-11-05T11:06:22.292Z,30.33
2018-11-05T11:08:50.408Z,30.40
2018-11-05T11:11:18.541Z,31.97
2018-11-05T11:13:46.641Z,32.83
2018-11-05T11:16:14.747Z,32.27
2018-11-05T11:18:42.887Z,30.37
2018-11-05T11:21:11.019Z,31.00
2018-11-05T11:23:39.128Z,31.53
2018-11-05T11:26:07.237Z,30.67
2018-11-05T11:28:35.464Z,31.17
2018-11-05T11:31:03.492Z,31.07
2018-11-05T11:33:31.610Z,29.30
2018-11-05T11:35:59.724Z,29.70
2018-11-05T11:38:27.869Z,30.00
2018-11-05T11:40:55.989Z,29.20
2018-11-05T11:43:24.111Z,28.40
2018-11-05T11:45:52.259Z,30.53
2018-11-05T11:48:20.387Z,31.40
2018-11-05T11:50:48.572Z,28.27
2018-11-05T11:53:16.790Z,31.10
2018-11-05T11:55:44.814Z,28.90
2018-11-05T11:58:12.941Z,28.73
2018-11-05T12:00:41.053Z,28.50
2018-11-05T12:03:21.476Z,27.67
2018-11-05T12:05:49.606Z,30.80
2018-11-05T12:08:17.759Z,29.90
2018-11-05T12:10:45.886Z,26.40
2018-11-05T12:13:14.051Z,29.67
2018-11-05T12:15:42.193Z,28.17
2018-11-05T12:18:10.312Z,32.03
2018-11-05T12:20:38.448Z,32.57
2018-11-05T12:23:06.568Z,34.30
2018-11-05T12:25:34.684Z,32.60
2018-11-05T12:28:02.850Z,34.47
2018-11-05T12:30:30.992Z,33.33
2018-11-05T12:32:59.175Z,34.83
2018-11-05T12:35:27.323Z,40.43
2018-11-05T12:37:55.459Z,38.70
2018-11-05T12:40:23.595Z,37.13
2018-11-05T12:42:52.055Z,38.07
2018-11-05T12:45:20.188Z,39.00
2018-11-05T12:47:48.338Z,37.80
2018-11-05T12:50:18.820Z,36.37
2018-11-05T12:52:47.730Z,39.23
2018-11-05T12:55:15.899Z,37.20
2018-11-05T12:57:44.039Z,39.37
2018-11-05T13:00:14.607Z,37.73
2018-11-05T13:02:42.768Z,38.73
2018-11-05T13:05:12.188Z,37.73
2018-11-05T13:07:40.369Z,39.27
2018-11-05T13:10:10.277Z,40.20
2018-11-05T13:12:38.569Z,42.97
2018-11-05T13:15:07.401Z,41.93
2018-11-05T13:17:35.736Z,41.90
2018-11-05T13:20:03.848Z,40.87
2018-11-05T13:22:31.968Z,42.57
2018-11-05T13:25:00.085Z,42.17
2018-11-05T13:27:28.240Z,43.90
2018-11-05T13:29:56.375Z,41.50
2018-11-05T13:32:24.557Z,42.23
2018-11-05T13:34:52.660Z,45.13
2018-11-05T13:37:21.096Z,46.17
2018-11-05T13:39:48.915Z,43.90
2018-11-05T13:42:17.059Z,44.47
2018-11-05T13:44:45.412Z,43.40
2018-11-05T13:47:14.161Z,45.83
2018-11-05T13:49:41.945Z,47.47
2018-11-05T13:52:09.978Z,46.03
2018-11-05T13:54:38.147Z,47.60
2018-11-05T13:57:06.055Z,47.80
2018-11-05T13:59:34.173Z,48.50
2018-11-05T14:02:02.291Z,47.73
2018-11-05T14:04:30.455Z,48.30
2018-11-05T14:06:58.556Z,48.33
2018-11-05T14:09:26.674Z,47.73
2018-11-05T14:11:54.806Z,47.80
2018-11-05T14:14:22.941Z,48.27
2018-11-05T14:16:51.108Z,48.47
2018-11-05T14:19:19.231Z,49.40
2018-11-05T14:21:47.432Z,49.77
2018-11-05T14:24:15.563Z,49.43
2018-11-05T14:26:43.700Z,49.63
2018-11-05T14:29:12.328Z,51.90
2018-11-05T14:31:39.947Z,49.63
2018-11-05T14:37:01.323Z,51.77
2018-11-05T14:39:29.397Z,51.77
2018-11-05T14:41:57.483Z,51.30
2018-11-05T14:44:25.656Z,50.40
2018-11-05T14:46:53.746Z,51.17
2018-11-05T14:49:21.827Z,51.40
2018-11-05T14:51:49.929Z,50.70
2018-11-05T14:54:18.039Z,49.43
2018-11-05T14:56:46.225Z,48.27
2018-11-05T14:59:14.319Z,49.97
2018-11-05T15:01:44.370Z,52.60
2018-11-05T15:04:12.594Z,47.73
2018-11-05T15:06:40.683Z,50.77
2018-11-05T15:09:09.829Z,51.80
2018-11-05T15:11:37.918Z,50.50
2018-11-05T15:14:06.015Z,51.03
2018-11-05T15:16:34.107Z,51.37
2018-11-05T15:19:02.653Z,51.03
2018-11-05T15:21:30.286Z,48.40
2018-11-05T15:23:58.387Z,53.10
2018-11-05T15:26:27.351Z,51.13
2018-11-05T15:28:55.375Z,52.90
2018-11-05T15:31:23.475Z,49.93
2018-11-05T15:33:51.662Z,50.43
2018-11-05T15:36:19.680Z,53.60
2018-11-05T15:38:47.767Z,53.23
2018-11-05T15:41:15.846Z,49.00
2018-11-05T15:43:43.941Z,51.50
2018-11-05T15:46:12.047Z,49.00
2018-11-05T15:48:40.183Z,46.20
2018-11-05T15:51:08.427Z,53.20
2018-11-05T15:53:36.906Z,49.90
2018-11-05T15:56:04.511Z,49.53
2018-11-05T15:58:32.603Z,51.33
2018-11-05T16:01:00.715Z,46.57
2018-11-05T16:03:28.806Z,46.87
2018-11-05T16:05:56.898Z,48.97
2018-11-05T16:08:25.020Z,48.67
2018-11-05T16:10:53.168Z,50.50
2018-11-05T16:13:21.278Z,52.13
2018-11-05T16:15:49.416Z,49.83
2018-11-05T16:18:17.531Z,50.77
2018-11-05T16:20:45.670Z,52.30
2018-11-05T16:23:13.787Z,47.37
2018-11-05T16:25:42.000Z,45.27
2018-11-05T16:28:10.035Z,48.43
2018-11-05T16:30:38.177Z,45.73
2018-11-05T16:33:06.287Z,48.30
2018-11-05T16:35:34.482Z,47.57
2018-11-05T16:38:02.558Z,49.37
2018-11-05T16:40:30.692Z,46.83
2018-11-05T16:42:58.808Z,46.80
2018-11-05T16:45:26.919Z,47.47
2018-11-05T16:47:55.040Z,47.60
2018-11-05T16:50:26.943Z,48.20
2018-11-05T16:52:55.218Z,46.27
2018-11-05T16:55:23.503Z,51.77
2018-11-05T16:57:51.666Z,47.23
2018-11-05T17:00:19.752Z,47.80
2018-11-05T17:02:48.820Z,47.50
2018-11-05T17:05:16.927Z,47.27
2018-11-05T17:07:45.046Z,49.87
2018-11-05T17:10:14.074Z,49.07
2018-11-05T17:12:42.881Z,50.47
2018-11-05T17:15:12.479Z,47.03
2018-11-05T17:17:41.174Z,49.67
2018-11-05T17:20:11.040Z,44.30
2018-11-05T17:22:39.674Z,44.43
2018-11-05T17:25:08.351Z,46.17
2018-11-05T17:27:36.753Z,43.10
2018-11-05T17:30:06.297Z,42.70
2018-11-05T17:32:34.508Z,44.00
2018-11-05T17:35:02.630Z,44.73
2018-11-05T17:37:30.755Z,43.33
2018-11-05T17:39:58.909Z,44.57
2018-11-05T17:42:26.993Z,48.10
2018-11-05T17:44:55.114Z,46.03
2018-11-05T17:47:23.268Z,48.17
2018-11-05T17:49:51.387Z,47.07
2018-11-05T17:52:19.522Z,45.10
2018-11-05T17:54:47.651Z,44.70
2018-11-05T17:57:15.764Z,45.57
2018-11-05T17:59:43.890Z,49.60
2018-11-05T18:02:18.058Z,48.30
2018-11-05T18:04:46.183Z,47.73
2018-11-05T18:07:14.320Z,47.90
2018-11-05T18:09:42.443Z,50.77
2018-11-05T18:12:10.926Z,46.73
2018-11-05T18:14:39.204Z,46.07
2018-11-05T18:17:07.674Z,48.70
2018-11-05T18:19:35.834Z,45.17
2018-11-05T18:22:04.291Z,46.20
2018-11-05T18:24:32.607Z,47.77
2018-11-05T18:27:00.599Z,48.10
2018-11-05T18:29:28.819Z,47.13
2018-11-05T18:31:56.968Z,48.50
2018-11-05T18:34:25.087Z,49.03
2018-11-05T18:36:53.432Z,53.13
2018-11-05T18:39:21.563Z,51.97
2018-11-05T18:41:49.694Z,46.10
2018-11-05T18:44:17.814Z,53.70
2018-11-05T18:46:45.940Z,56.37
2018-11-05T18:49:14.059Z,56.33
2018-11-05T18:51:42.290Z,54.77
2018-11-05T18:54:10.340Z,52.80
2018-11-05T18:56:38.529Z,52.33
2018-11-05T18:59:07.032Z,60.17
2018-11-05T19:01:35.451Z,52.20
2018-11-05T19:04:03.580Z,56.90
2018-11-05T19:06:31.699Z,54.07
2018-11-05T19:08:59.804Z,53.90
2018-11-05T19:11:28.384Z,48.40
2018-11-05T19:13:56.771Z,50.90
2018-11-05T19:16:25.250Z,48.63
2018-11-05T19:18:54.092Z,48.43
2018-11-05T19:21:22.260Z,48.20
2018-11-05T19:23:50.859Z,43.70
2018-11-05T19:26:18.933Z,43.37
2018-11-05T19:28:47.143Z,50.57
2018-11-05T19:31:15.281Z,53.00
2018-11-05T19:33:43.521Z,45.70
2018-11-05T19:36:12.328Z,45.00
2018-11-05T19:38:40.640Z,43.27
2018-11-05T19:41:08.785Z,45.13
2018-11-05T19:43:37.155Z,42.33
2018-11-05T19:46:06.037Z,46.20
2018-11-05T19:48:34.143Z,47.97
2018-11-05T19:51:02.250Z,49.60
2018-11-05T19:53:30.413Z,46.63
2018-11-05T19:55:58.508Z,44.00
2018-11-05T19:58:26.569Z,38.57
2018-11-05T20:00:54.799Z,45.00
2018-11-05T20:03:22.782Z,43.03
2018-11-05T20:05:50.973Z,44.40
2018-11-05T20:08:19.001Z,40.60
2018-11-05T20:10:47.127Z,43.10
2018-11-05T20:13:15.239Z,45.70
2018-11-05T20:15:43.437Z,46.70
2018-11-05T20:18:11.512Z,45.27
2018-11-05T20:20:39.843Z,52.53
2018-11-05T20:23:07.949Z,48.17
2018-11-05T20:25:36.064Z,41.13
2018-11-05T20:28:04.217Z,51.87
2018-11-05T20:30:32.332Z,48.50
2018-11-05T20:33:00.618Z,42.80
2018-11-05T20:35:28.553Z,46.20
2018-11-05T20:37:56.672Z,44.40
2018-11-05T20:40:24.875Z,36.30
2018-11-05T20:42:53.328Z,36.57
2018-11-05T20:45:22.331Z,38.17
2018-11-05T20:47:50.433Z,43.20
2018-11-05T20:50:19.405Z,37.93
2018-11-05T20:52:47.872Z,36.67
2018-11-05T20:55:17.470Z,42.07
2018-11-05T20:57:45.646Z,37.10
2018-11-05T21:00:15.052Z,37.17
2018-11-05T21:02:43.537Z,36.80
2018-11-05T21:05:11.636Z,35.57
2018-11-05T21:07:40.701Z,34.60
2018-11-05T21:10:09.917Z,34.97
2018-11-05T21:12:38.696Z,34.60
2018-11-05T21:15:07.636Z,32.30
2018-11-05T21:17:35.760Z,34.20
2018-11-05T21:20:03.881Z,32.30
2018-11-05T21:22:32.060Z,31.17
2018-11-05T21:25:00.090Z,34.13
2018-11-05T21:27:28.197Z,34.03
2018-11-05T21:29:56.309Z,35.77
2018-11-05T21:32:24.440Z,35.80
2018-11-05T21:34:52.593Z,32.93
2018-11-05T21:37:20.656Z,33.80
2018-11-05T21:39:48.772Z,35.90
2018-11-05T21:42:16.876Z,36.70
2018-11-05T21:44:45.632Z,38.20
2018-11-05T21:47:13.899Z,33.43
2018-11-05T21:49:41.964Z,32.57
2018-11-05T21:52:10.065Z,35.23
2018-11-05T21:54:38.213Z,31.33
2018-11-05T21:57:06.344Z,37.07
2018-11-05T21:59:34.438Z,31.00
2018-11-05T22:02:03.247Z,30.00
2018-11-05T22:04:31.381Z,34.40
2018-11-05T22:06:59.530Z,28.20
2018-11-05T22:09:27.711Z,28.00
2018-11-05T22:11:56.473Z,29.67
2018-11-05T22:14:24.587Z,29.50
2018-11-05T22:16:53.719Z,31.23
2018-11-05T22:19:22.712Z,29.20
2018-11-05T22:21:51.653Z,28.60
2018-11-05T22:24:20.378Z,30.87
2018-11-05T22:26:49.137Z,28.33
2018-11-05T22:29:18.036Z,30.27
2018-11-05T22:31:47.004Z,27.37
2018-11-05T22:34:16.520Z,30.83
2018-11-05T22:36:45.265Z,30.13
2018-11-05T22:39:13.984Z,29.87
2018-11-05T22:41:42.794Z,30.60
2018-11-05T22:44:10.932Z,31.97
2018-11-05T22:46:39.036Z,33.00
2018-11-05T22:49:07.219Z,30.87
2018-11-05T22:51:35.325Z,28.70
2018-11-05T22:54:03.451Z,28.73
2018-11-05T22:56:31.550Z,28.30
2018-11-05T22:58:59.657Z,28.00
2018-11-05T23:01:33.312Z,28.07
2018-11-05T23:04:03.151Z,24.10
2018-11-05T23:06:33.032Z,26.00
2018-11-05T23:09:01.156Z,23.50
2018-11-05T23:11:29.266Z,24.60
2018-11-05T23:13:57.360Z,22.60
2018-11-05T23:16:25.459Z,23.73
2018-11-05T23:18:53.547Z,20.27
2018-11-05T23:21:21.660Z,21.33
2018-11-05T23:23:49.759Z,21.20
2018-11-05T23:26:17.888Z,22.90
2018-11-05T23:28:46.004Z,22.40
2018-11-05T23:31:14.134Z,22.53
2018-11-05T23:33:42.268Z,23.13
2018-11-05T23:36:10.369Z,21.40
2018-11-05T23:38:38.469Z,22.37
2018-11-05T23:41:06.580Z,23.63
2018-11-05T23:43:34.679Z,23.20
2018-11-05T23:46:02.809Z,23.20
2018-11-05T23:48:30.916Z,24.40
2018-11-05T23:50:59.007Z,23.83
2018-11-05T23:53:27.115Z,23.53
2018-11-05T23:55:55.217Z,21.67
2018-11-05T23:58:23.315Z,21.77
